createdAt,value
2019-04-11T00:05:02.874Z,70.50
2019-04-11T00:10:12.391Z,70.65
2019-04-11T00:15:18.188Z,69.96
2019-04-11T00:20:24.227Z,69.54
2019-04-11T00:25:31.698Z,69.40
2019-04-11T00:30:37.095Z,69.20
2019-04-11T00:35:42.444Z,70.10
2019-04-11T00:40:47.544Z,69.87
2019-04-11T00:45:52.669Z,69.79
2019-04-11T00:50:57.955Z,69.06
2019-04-11T00:56:04.103Z,68.96
2019-04-11T01:01:11.401Z,67.85
2019-04-11T01:06:16.756Z,68.04
2019-04-11T01:11:21.959Z,68.09
2019-04-11T01:16:46.763Z,67.28
2019-04-11T01:21:52.930Z,67.28
2019-04-11T01:26:59.348Z,67.11
2019-04-11T01:32:06.722Z,67.07
2019-04-11T01:37:12.411Z,67.29
2019-04-11T01:42:19.453Z,67.32
2019-04-11T01:47:26.807Z,67.31
2019-04-11T01:52:31.934Z,67.25
2019-04-11T01:57:38.122Z,66.52
2019-04-11T02:02:47.900Z,66.96
2019-04-11T02:07:53.300Z,67.73
2019-04-11T02:12:59.612Z,67.78
2019-04-11T02:18:05.447Z,68.60
2019-04-11T02:23:15.717Z,68.98
2019-04-11T02:28:21.099Z,68.55
2019-04-11T02:33:26.983Z,67.76
2019-04-11T02:38:33.391Z,67.23
2019-04-11T02:43:42.075Z,67.41
2019-04-11T02:48:46.911Z,67.41
2019-04-11T02:53:54.292Z,67.83
2019-04-11T02:58:59.975Z,66.84
2019-04-11T03:04:07.271Z,67.12
2019-04-11T03:09:13.333Z,66.70
2019-04-11T03:14:20.679Z,67.14
2019-04-11T03:19:42.617Z,67.61
2019-04-11T03:24:36.005Z,68.36
2019-04-11T03:29:42.985Z,67.92
2019-04-11T03:40:14.148Z,69.61
2019-04-11T03:45:26.367Z,69.93
2019-04-11T03:50:16.605Z,70.16
2019-04-11T03:55:19.179Z,69.41
2019-04-11T04:00:30.385Z,69.59
2019-04-11T04:05:36.496Z,69.83
2019-04-11T04:10:42.278Z,69.26
2019-04-11T04:16:01.832Z,69.34
2019-04-11T04:21:15.548Z,68.70
2019-04-11T04:26:20.797Z,68.98
2019-04-11T04:31:26.681Z,68.18
2019-04-11T04:36:32.974Z,68.76
2019-04-11T04:41:47.975Z,68.24
2019-04-11T04:47:00.193Z,67.71
2019-04-11T04:51:56.152Z,67.61
2019-04-11T04:57:02.888Z,68.29
2019-04-11T05:02:10.588Z,67.46
2019-04-11T05:07:17.127Z,67.47
2019-04-11T05:12:22.668Z,67.25
2019-04-11T05:17:28.920Z,64.92
2019-04-11T05:22:35.237Z,64.58
2019-04-11T05:27:41.835Z,63.27
2019-04-11T05:32:47.307Z,62.99
2019-04-11T05:37:53.563Z,62.81
2019-04-11T05:42:59.636Z,62.90
2019-04-11T05:48:07.723Z,63.38
2019-04-11T05:53:13.576Z,63.31
2019-04-11T05:58:19.657Z,66.04
2019-04-11T06:03:25.986Z,66.39
2019-04-11T06:08:32.237Z,66.61
2019-04-11T06:13:39.162Z,67.63
2019-04-11T06:19:02.165Z,67.17
2019-04-11T06:24:24.134Z,60.09
2019-04-11T06:29:43.675Z,60.32
2019-04-11T06:34:53.476Z,57.98
2019-04-11T06:40:02.420Z,56.70
2019-04-11T06:45:23.783Z,58.29
2019-04-11T06:50:49.387Z,58.68
2019-04-11T06:56:14.812Z,59.06
2019-04-11T07:01:22.403Z,58.61
2019-04-11T07:06:32.012Z,58.37
2019-04-11T07:11:38.745Z,58.81
2019-04-11T07:17:01.402Z,59.18
2019-04-11T07:22:04.717Z,58.37
2019-04-11T07:27:11.666Z,58.01
2019-04-11T07:32:17.966Z,61.75
2019-04-11T07:37:28.193Z,64.78
2019-04-11T07:42:52.830Z,64.10
2019-04-11T07:48:08.913Z,64.09
2019-04-11T07:53:15.776Z,62.54
2019-04-11T07:58:25.538Z,62.21
2019-04-11T08:03:44.667Z,61.24
2019-04-11T08:08:51.670Z,63.91
2019-04-11T08:14:02.217Z,66.74
2019-04-11T08:19:24.829Z,65.22
2019-04-11T08:24:48.915Z,64.75
2019-04-11T08:30:02.924Z,63.99
2019-04-11T08:35:16.228Z,63.73
2019-04-11T08:40:23.939Z,67.57
2019-04-11T08:45:32.013Z,68.98
2019-04-11T08:50:38.898Z,67.32
2019-04-11T08:55:53.690Z,65.08
2019-04-11T09:01:00.126Z,62.86
2019-04-11T09:06:08.445Z,60.94
2019-04-11T09:11:18.153Z,61.54
2019-04-11T09:16:41.602Z,61.26
2019-04-11T09:22:04.754Z,60.45
2019-04-11T09:27:24.798Z,59.80
2019-04-11T09:32:48.686Z,61.37
2019-04-11T09:37:55.237Z,62.02
2019-04-11T09:43:02.303Z,60.21
2019-04-11T09:48:18.219Z,60.88
2019-04-11T09:53:22.717Z,60.59
2019-04-11T09:58:29.525Z,59.52
2019-04-11T10:03:36.645Z,57.51
2019-04-11T10:08:43.743Z,58.50
2019-04-11T10:13:53.509Z,57.99
2019-04-11T10:19:05.832Z,59.33
2019-04-11T10:24:18.727Z,59.10
2019-04-11T10:29:36.308Z,57.82
2019-04-11T10:34:54.878Z,57.75
2019-04-11T10:40:17.807Z,57.75
2019-04-11T10:45:40.736Z,58.40
2019-04-11T10:50:53.563Z,58.69
2019-04-11T10:56:00.331Z,57.93
2019-04-11T11:01:07.581Z,56.50
2019-04-11T11:06:15.566Z,57.29
2019-04-11T11:11:22.385Z,58.93
2019-04-11T11:16:31.878Z,62.09
2019-04-11T11:21:37.224Z,64.66
2019-04-11T11:26:43.289Z,71.23
2019-04-11T11:31:50.420Z,71.23
2019-04-11T11:37:09.381Z,70.93
2019-04-11T11:42:22.183Z,69.78
2019-04-11T11:47:45.955Z,67.51
2019-04-11T11:52:53.204Z,68.97
2019-04-11T11:58:17.349Z,66.76
2019-04-11T12:03:32.966Z,65.10
2019-04-11T12:08:56.261Z,65.05
2019-04-11T12:14:20.106Z,63.87
2019-04-11T12:19:43.577Z,63.50
2019-04-11T12:24:42.990Z,62.32
2019-04-11T12:30:04.445Z,59.60
2019-04-11T12:35:13.594Z,57.47
2019-04-11T12:40:36.886Z,58.93
2019-04-11T12:45:49.786Z,57.71
2019-04-11T12:51:13.063Z,57.84
2019-04-11T12:56:20.108Z,57.57
2019-04-11T13:01:27.300Z,56.50
2019-04-11T13:06:35.594Z,59.15
2019-04-11T13:11:42.524Z,59.06
2019-04-11T13:16:50.755Z,63.46
2019-04-11T13:21:57.515Z,62.82
2019-04-11T13:27:16.745Z,61.79
2019-04-11T13:32:29.600Z,61.03
2019-04-11T13:37:48.885Z,61.33
2019-04-11T13:42:58.906Z,63.70
2019-04-11T13:48:22.440Z,63.20
2019-04-11T13:53:54.728Z,63.02
2019-04-11T13:59:10.473Z,64.98
2019-04-11T14:04:23.521Z,66.74
2019-04-11T14:09:33.296Z,66.59
2019-04-11T14:14:38.457Z,67.59
2019-04-11T14:20:01.614Z,67.52
2019-04-11T14:25:26.908Z,67.45
2019-04-11T14:30:36.705Z,67.47
2019-04-11T14:35:46.442Z,66.79
2019-04-11T14:41:01.565Z,66.37
2019-04-11T14:46:09.246Z,64.92
2019-04-11T14:51:31.941Z,63.67
2019-04-11T14:56:39.286Z,63.01
2019-04-11T15:01:46.049Z,62.82
2019-04-11T15:06:58.665Z,63.37
2019-04-11T15:12:06.495Z,62.39
2019-04-11T15:17:26.355Z,62.69
2019-04-11T15:22:39.531Z,62.19
2019-04-11T15:27:55.144Z,62.22
2019-04-11T15:33:07.375Z,62.82
2019-04-11T15:38:30.247Z,61.99
2019-04-11T15:43:53.463Z,63.12
2019-04-11T15:49:03.189Z,64.16
2019-04-11T15:54:16.258Z,63.92
2019-04-11T15:59:37.977Z,63.94
2019-04-11T16:04:47.271Z,62.27
2019-04-11T16:09:56.784Z,60.91
2019-04-11T16:15:17.939Z,60.28
2019-04-11T16:20:23.930Z,60.65
2019-04-11T16:25:29.839Z,60.46
2019-04-11T16:30:39.562Z,60.45
2019-04-11T16:35:50.961Z,61.00
2019-04-11T16:41:13.932Z,61.10
2019-04-11T16:46:24.635Z,60.86
2019-04-11T16:51:31.155Z,60.31
2019-04-11T16:56:34.851Z,61.46
2019-04-11T17:01:40.002Z,61.48
2019-04-11T17:06:49.472Z,61.29
2019-04-11T17:11:56.550Z,61.08
2019-04-11T17:17:01.589Z,61.39
2019-04-11T17:22:08.209Z,60.21
2019-04-11T17:27:13.871Z,59.56
2019-04-11T17:32:19.016Z,60.80
2019-04-11T17:37:24.193Z,61.06
2019-04-11T17:42:29.323Z,61.75
2019-04-11T17:47:34.755Z,60.91
2019-04-11T17:52:40.054Z,60.28
2019-04-11T17:57:45.292Z,59.80
2019-04-11T18:02:50.502Z,61.83
2019-04-11T18:07:55.818Z,61.87
2019-04-11T18:13:01.159Z,62.13
2019-04-11T18:18:06.449Z,62.13
2019-04-11T18:23:11.629Z,61.86
2019-04-11T18:28:17.090Z,62.74
2019-04-11T18:33:22.209Z,63.37
2019-04-11T18:38:27.381Z,63.28
2019-04-11T18:43:32.420Z,63.87
2019-04-11T18:48:37.566Z,63.99
2019-04-11T18:53:42.776Z,67.19
2019-04-11T18:58:48.052Z,68.97
2019-04-11T19:03:53.439Z,68.14
2019-04-11T19:08:58.528Z,68.80
2019-04-11T19:14:04.843Z,70.21
2019-04-11T19:19:09.994Z,70.12
2019-04-11T19:24:15.208Z,70.08
2019-04-11T19:29:20.274Z,69.10
2019-04-11T19:34:25.595Z,68.13
2019-04-11T19:39:31.133Z,67.62
2019-04-11T19:44:36.503Z,67.85
2019-04-11T19:49:41.940Z,64.79
2019-04-11T19:54:47.247Z,63.70
2019-04-11T19:59:52.808Z,63.57
2019-04-11T20:04:58.428Z,63.54
2019-04-11T20:10:07.011Z,63.81
2019-04-11T20:15:12.335Z,63.80
2019-04-11T20:20:17.821Z,63.53
2019-04-11T20:25:23.477Z,63.30
2019-04-11T20:30:28.710Z,63.76
2019-04-11T20:35:33.820Z,63.80
2019-04-11T20:40:40.105Z,63.93
2019-04-11T20:45:45.522Z,63.99
2019-04-11T20:50:51.897Z,63.63
2019-04-11T20:55:56.991Z,63.54
2019-04-11T21:01:02.341Z,64.26
2019-04-11T21:06:07.457Z,63.67
2019-04-11T21:11:12.620Z,63.76
2019-04-11T21:16:17.641Z,64.47
2019-04-11T21:21:25.245Z,63.82
2019-04-11T21:26:29.675Z,64.14
2019-04-11T21:31:34.871Z,64.04
2019-04-11T21:36:40.311Z,64.57
2019-04-11T21:41:45.546Z,64.39
2019-04-11T21:46:50.848Z,64.71
2019-04-11T21:51:56.228Z,65.09
2019-04-11T21:57:01.269Z,64.95
2019-04-11T22:02:07.726Z,64.78
2019-04-11T22:07:12.997Z,65.22
2019-04-11T22:12:18.117Z,65.23
2019-04-11T22:17:23.315Z,65.46
2019-04-11T22:22:28.510Z,65.55
2019-04-11T22:27:33.733Z,65.27
2019-04-11T22:32:40.548Z,64.91
2019-04-11T22:37:45.625Z,65.51
2019-04-11T22:42:50.761Z,65.25
2019-04-11T22:47:55.937Z,64.76
2019-04-11T22:53:01.182Z,64.49
2019-04-11T22:58:06.386Z,64.46
2019-04-11T23:03:16.882Z,64.85
2019-04-11T23:08:19.963Z,64.83
2019-04-11T23:13:25.115Z,64.45
2019-04-11T23:18:30.174Z,64.26
2019-04-11T23:23:35.658Z,64.72
2019-04-11T23:28:40.761Z,64.55
2019-04-11T23:33:45.931Z,64.01
2019-04-11T23:38:52.648Z,64.51
2019-04-11T23:43:58.432Z,64.04
2019-04-11T23:49:04.683Z,63.54
2019-04-11T23:54:10.241Z,63.31
2019-04-11T23:59:15.505Z,63.60
